• Join FlightAware (Why Join?)
  • Login
  • US Flag 
09:54AM EDT


 

Airport Tracker/Info


-or-


 

Live Flight TrackerFlight Track Log ✈ EJA922 ✈ 20-Jan-2014 ✈ KPBI - KLGA

Flight Track Log - Related Links

Times and Time Zones

All times are in EST time to prevent confusion due to time zone crossing. See the EJA922 flight status page for this flight to view local times or setup timezone preferences in your user account.

Time Position Orientation Groundspeed Altitude Reporting Facility
EST Latitude Longitude Course Direction KTS MPH feet Rate Location/Type
04:31PM 26.6911 -80.1353 33° Northeast 200 230 2,900  Level Miami Center
04:33PM 26.7781 -80.0725 33° Northeast 313 360 41,000 12,660 Climbing Miami Center
04:34PM 26.8219 -79.9736 64° Northeast 406 467 41,000 -14,160 Level Miami Center
04:35PM 26.8664 -79.8561 67° East 505 581 12,700 -12,600 Descending Miami Center
04:36PM 26.8900 -79.7239 79° East 427 491 15,800 2,580 Climbing Miami Center
04:37PM 26.9111 -79.6008 79° East 405 466 17,900 1,980 Climbing Miami Center
04:38PM 26.9447 -79.4711 74° East 410 472 19,800 1,860 Climbing Miami Center
04:39PM 26.9864 -79.3625 67° East 415 478 21,700 1,560 Climbing Miami Center
04:40PM 27.0778 -79.2711 42° Northeast 421 484 23,000 600 Climbing Miami Center
04:41PM 27.1900 -79.1661 40° Northeast 452 520 23,000 180 Level Miami Center
04:42PM 27.2939 -79.0653 41° Northeast 484 557 23,400 1,020 Climbing Miami Center
04:43PM 27.3997 -78.9692 39° Northeast 484 557 25,100 1,980 Climbing Miami Center
04:44PM 27.5153 -78.9361 14° North 463 533 27,400 2,400 Climbing Miami Center
04:45PM 27.6533 -78.9175 North 445 512 30,000 2,160 Climbing Miami Center
04:46PM 27.7808 -78.8986 North 450 518 31,800 1,800 Climbing Miami Center
04:47PM 27.8917 -78.8842 North 455 524 33,600 1,800 Climbing Miami Center
04:48PM 28.0172 -78.8653 North 450 518 35,500 1,620 Climbing Miami Center
04:49PM 28.1469 -78.8464 North 455 524 36,900 1,500 Climbing Miami Center
04:50PM 28.2767 -78.8275 North 462 532 38,600 1,680 Climbing Miami Center
04:51PM 28.4064 -78.8061 North 462 532 40,300 1,200 Climbing Miami Center
04:52PM 28.5339 -78.7894 North 462 532 41,000 300 Climbing Miami Center
04:53PM 28.6656 -78.7703 North 467 537 41,000  Level Miami Center
04:54PM 28.8036 -78.7489 North 482 555 41,000  Level Miami Center
04:55PM 28.9439 -78.7278 North 493 567 41,000  Level Miami Center
04:56PM 29.0797 -78.7061 North 500 575 41,000  Level Miami Center
04:57PM 29.2217 -78.6872 North 506 582 41,000  Level Miami Center
04:58PM 29.3619 -78.6658 North 506 582 41,000  Level Miami Center
04:59PM 29.4978 -78.6442 North 501 577 41,000 480 Level Miami Center
05:00PM 29.6458 -78.6322 North 509 586 42,000 960 Climbing Miami Center
05:01PM 29.7519 -78.6058 12° North 582 670 42,800 960 Climbing Jacksonville Center
05:02PM 29.8847 -78.5833 North 543 625 43,800 960 Climbing Jacksonville Center
05:03PM 30.0178 -78.5656 North 497 572 44,800 600 Climbing Jacksonville Center
05:04PM 30.1483 -78.5428 North 485 558 45,000 60 Climbing Jacksonville Center
05:05PM 30.2836 -78.5247 North 480 552 45,000  Level Jacksonville Center
05:06PM 30.4247 -78.5036 North 486 559 45,000  Level Jacksonville Center
05:07PM 30.5617 -78.4831 North 496 571 45,000  Level Jacksonville Center
05:08PM 30.7050 -78.4594 North 503 579 45,000  Level Jacksonville Center
05:09PM 30.8506 -78.4406 North 503 579 45,000  Level Jacksonville Center
05:10PM 30.9875 -78.4194 North 503 579 45,000  Level Jacksonville Center
05:11PM 31.1267 -78.3983 North 503 579 45,000  Level Jacksonville Center
05:12PM 31.2675 -78.3722 North 498 573 45,000  Level Jacksonville Center
05:13PM 31.4025 -78.3533 North 498 573 45,000  Level Jacksonville Center
05:14PM 31.5436 -78.3294 North 498 573 45,000 -60 Level Jacksonville Center
05:15PM 31.6808 -78.3081 North 498 573 44,900  Descending Jacksonville Center
05:16PM 31.8219 -78.2864 North 498 573 45,000  Climbing Jacksonville Center
05:17PM 31.9631 -78.2622 North 498 573 45,000 -60 Level Jacksonville Center
05:18PM 32.1083 -78.2428 North 509 586 44,900  Descending Jacksonville Center
05:19PM 32.2431 -78.2186 North 502 578 45,000  Climbing Jacksonville Center
05:20PM 32.3822 -78.1967 North 502 578 45,000 -60 Level Jacksonville Center
05:21PM 32.5208 -78.1697 North 502 578 44,900  Descending Jacksonville Center
05:22PM 32.6603 -78.1528 North 502 578 45,000  Climbing Jacksonville Center
05:23PM 32.7972 -78.1308 North 502 578 45,000  Level Jacksonville Center
05:25PM 33.1092 -78.0803 North 512 589 45,000  Level Washington Center
05:26PM 33.2475 -78.0544 North 502 578 45,000  Level Washington Center
05:27PM 33.3833 -78.0336 North 502 578 45,000  Level Washington Center
05:28PM 33.5194 -78.0128 North 497 572 45,000  Level Washington Center
05:29PM 33.6556 -77.9892 North 497 572 45,000 -60 Level Washington Center
05:30PM 33.7914 -77.9681 North 497 572 44,900  Descending Washington Center
05:31PM 33.9297 -77.9469 North 497 572 45,000  Climbing Washington Center
05:32PM 34.0656 -77.9233 North 497 572 45,000  Level Washington Center
05:33PM 34.2039 -77.8972 North 491 565 45,000  Level Washington Center
05:34PM 34.3272 -77.8806 North 485 558 45,000  Level Washington Center
05:35PM 34.4653 -77.8642 North 490 564 45,000  Level Washington Center
05:36PM 34.5992 -77.8503 North 484 557 45,000  Level Washington Center
05:37PM 34.7350 -77.8361 North 484 557 45,000  Level Washington Center
05:38PM 34.8689 -77.8197 North 484 557 45,000  Level Washington Center
05:39PM 35.0047 -77.8056 North 484 557 45,000  Level Washington Center
05:40PM 35.1406 -77.7917 North 484 557 45,000  Level Washington Center
05:41PM 35.2764 -77.7775 North 484 557 45,000  Level Washington Center
05:42PM 35.4125 -77.7633 North 484 557 45,000  Level Washington Center
05:43PM 35.5503 -77.7492 North 484 557 45,000  Level Washington Center
05:44PM 35.6861 -77.7350 North 484 557 45,000  Level Washington Center
05:45PM 35.8242 -77.7208 North 484 557 45,000  Level Washington Center
05:46PM 35.9622 -77.7039 North 484 557 45,000  Level Washington Center
05:47PM 36.0986 -77.6561 16° North 489 563 45,000  Level Washington Center
05:48PM 36.2333 -77.5953 20° North 500 575 45,000  Level Washington Center
05:49PM 36.3678 -77.5369 19° North 505 581 45,000  Level Washington Center
05:50PM 36.5042 -77.4783 19° North 505 581 45,000  Level Washington Center
05:51PM 36.6386 -77.4194 19° North 510 587 45,000  Level Washington Center
05:52PM 36.7753 -77.3603 19° North 510 587 45,000  Level Washington Center
05:53PM 36.9094 -77.3011 19° North 510 587 45,000  Level Washington Center
05:54PM 37.0481 -77.2392 20° North 510 587 45,000  Level Washington Center
05:55PM 37.1825 -77.1819 19° North 510 587 45,000  Level Washington Center
05:56PM 37.3336 -77.1119 20° North 510 587 45,000  Level Washington Center
05:57PM 37.4619 -77.0153 31° Northeast 527 606 45,000  Level Washington Center
05:58PM 37.5819 -76.9283 30° Northeast 535 616 45,000  Level Washington Center
05:59PM 37.7081 -76.8361 30° Northeast 535 616 45,000 -180 Level Washington Center
06:00PM 37.8342 -76.7408 31° Northeast 530 610 44,700 -660 Descending Washington Center
06:01PM 37.9578 -76.6506 30° Northeast 524 603 43,700 -2,220 Descending Washington Center
06:02PM 38.0669 -76.5675 31° Northeast 492 566 40,300 -4,020 Descending Washington Center
06:03PM 38.1844 -76.4794 30° Northeast 485 558 35,800 -4,380 Descending Washington Center
06:04PM 38.2956 -76.3908 32° Northeast 475 547 31,400 -2,640 Descending Washington Center
06:05PM 38.4089 -76.2911 35° Northeast 481 554 30,500 -1,020 Descending Washington Center
06:06PM 38.5242 -76.1833 36° Northeast 495 570 29,400 -1,080 Descending Washington Center
06:07PM 38.6414 -76.0753 36° Northeast 509 586 28,400 -1,020 Descending Washington Center
06:08PM 38.7500 -75.9722 36° Northeast 502 578 27,400 -720 Descending Washington Center
06:09PM 38.8589 -75.8717 36° Northeast 489 563 27,000 -240 Descending Washington Center
06:10PM 38.9675 -75.7706 36° Northeast 478 550 27,000  Level Washington Center
06:11PM 39.0758 -75.6692 36° Northeast 478 550 27,000 -360 Level Washington Center
06:12PM 39.1842 -75.5647 37° Northeast 478 550 26,300 -1,080 Descending Washington Center
06:13PM 39.2967 -75.4628 35° Northeast 483 556 24,900 -1,440 Descending Washington Center
06:14PM 39.4050 -75.3633 35° Northeast 483 556 23,500 -1,260 Descending Washington Center
06:15PM 39.5153 -75.2661 34° Northeast 473 544 22,400 -1,260 Descending Washington Center
06:16PM 39.6189 -75.1686 36° Northeast 473 544 21,100 -1,260 Descending Washington Center
06:17PM 39.7250 -75.0736 35° Northeast 473 544 20,000 -2,040 Descending Washington Center
06:18PM 39.8369 -74.9756 34° Northeast 456 525 17,100 -2,700 Descending Washington Center
06:19PM 39.9500 -74.8500 40° Northeast 426 490 14,000 -2,400 Descending New York TRACON
06:20PM 40.0333 -74.7500 43° Northeast 407 468 11,800 -2,040 Descending New York TRACON
06:21PM 40.1000 -74.6333 53° Northeast 381 438 10,000 -900 Descending New York TRACON
06:22PM 40.1833 -74.5333 42° Northeast 370 426 10,000 -420 Level New York TRACON
06:23PM 40.2333 -74.4500 52° Northeast 316 364 9,200 -1,200 Descending New York TRACON
06:24PM 40.3000 -74.3833 37° Northeast 301 346 7,700 -1,140 Descending New York TRACON
06:25PM 40.3500 -74.3000 52° Northeast 281 323 7,000 -360 Descending New York TRACON
06:26PM 40.4167 -74.2500 30° Northeast 269 310 7,000 -240 Level New York TRACON
06:27PM 40.4833 -74.1833 37° Northeast 257 296 6,500 -1,140 Descending New York TRACON
06:28PM 40.5333 -74.1333 37° Northeast 266 306 4,800 -1,320 Descending New York TRACON
06:29PM 40.5833 -74.0667 45° Northeast 266 306 4,000 -420 Descending New York TRACON
06:30PM 40.6500 -74.0000 37° Northeast 264 304 4,000  Level New York TRACON
06:31PM 40.7000 -73.9500 37° Northeast 267 307 4,000  Level New York TRACON
06:32PM 40.7500 -73.8667 52° Northeast 266 306 4,000  Level New York TRACON
06:33PM 40.7833 -73.7833 62° Northeast 268 308 4,000  Level New York TRACON
06:34PM 40.8500 -73.7333 30° Northeast 246 283 4,000 -300 Level New York TRACON
06:35PM 40.8833 -73.7167 21° North 182 209 3,400 -540 Descending New York TRACON
06:36PM 40.8833 -73.7667 270° West 142 163 3,000 -780 Descending New York TRACON
06:37PM 40.8667 -73.8167 246° West 121 139 1,800 -960 Descending New York TRACON
06:38PM 40.8333 -73.8333 201° Southwest 125 144 1,100 -660 Descending New York TRACON
06:39PM 40.8000 -73.8500 201° Southwest 130 150 600 -600 Descending New York TRACON